createdAt,value
2023-09-30T00:02:13.585Z,99.90
2023-09-30T00:04:41.725Z,99.90
2023-09-30T00:07:09.425Z,99.90
2023-09-30T00:09:37.142Z,99.90
2023-09-30T00:12:05.388Z,99.90
2023-09-30T00:14:34.063Z,99.90
2023-09-30T00:17:01.873Z,99.90
2023-09-30T00:19:29.672Z,99.90
2023-09-30T00:21:57.428Z,99.90
2023-09-30T00:24:25.133Z,99.90
2023-09-30T00:26:52.826Z,99.90
2023-09-30T00:29:20.504Z,99.90
2023-09-30T00:31:52.296Z,99.90
2023-09-30T00:34:20.120Z,99.90
2023-09-30T00:36:48.705Z,99.90
2023-09-30T00:39:16.507Z,99.90
2023-09-30T00:41:44.181Z,99.90
2023-09-30T00:44:12.425Z,99.90
2023-09-30T00:46:42.980Z,99.90
2023-09-30T00:49:11.730Z,99.90
2023-09-30T00:51:40.223Z,99.90
2023-09-30T00:54:10.090Z,99.90
2023-09-30T00:56:49.626Z,99.90
2023-09-30T00:59:18.018Z,99.90
2023-09-30T01:01:47.704Z,99.90
2023-09-30T01:04:16.863Z,99.90
2023-09-30T01:06:44.704Z,99.90
2023-09-30T01:09:14.138Z,99.90
2023-09-30T01:11:42.167Z,99.90
2023-09-30T01:14:45.714Z,99.90
2023-09-30T01:17:14.937Z,99.90
2023-09-30T01:19:44.221Z,99.90
2023-09-30T01:22:12.610Z,99.90
2023-09-30T01:24:41.903Z,99.90
2023-09-30T01:27:10.567Z,99.90
2023-09-30T01:29:41.167Z,99.90
2023-09-30T01:32:09.997Z,99.90
2023-09-30T01:34:38.650Z,99.90
2023-09-30T01:37:07.486Z,99.90
2023-09-30T01:39:35.397Z,99.90
2023-09-30T01:42:03.231Z,99.90
2023-09-30T01:44:34.118Z,99.90
2023-09-30T01:47:02.061Z,99.90
2023-09-30T01:49:30.265Z,99.90
2023-09-30T01:51:58.261Z,99.90
2023-09-30T01:54:27.051Z,99.90
2023-09-30T01:56:54.752Z,99.90
2023-09-30T01:59:22.547Z,99.90
2023-09-30T02:01:50.846Z,99.90
2023-09-30T02:04:18.748Z,99.90
2023-09-30T02:06:46.432Z,99.90
2023-09-30T02:09:14.296Z,99.90
2023-09-30T02:11:44.689Z,99.90
2023-09-30T02:14:12.833Z,99.90
2023-09-30T02:16:41.615Z,99.90
2023-09-30T02:19:12.329Z,99.90
2023-09-30T02:21:40.322Z,99.90
2023-09-30T02:24:08.667Z,99.90
2023-09-30T02:26:36.725Z,99.90
2023-09-30T02:29:04.516Z,99.90
2023-09-30T02:31:32.218Z,99.90
2023-09-30T02:34:00.440Z,99.90
2023-09-30T02:36:28.793Z,99.90
2023-09-30T02:38:56.565Z,99.90
2023-09-30T02:41:24.786Z,99.90
2023-09-30T02:43:52.487Z,99.90
2023-09-30T02:46:20.289Z,99.90
2023-09-30T02:48:48.216Z,99.90
2023-09-30T02:51:16.007Z,99.90
2023-09-30T02:53:43.927Z,99.90
2023-09-30T02:56:11.570Z,99.90
2023-09-30T02:58:41.307Z,99.90
2023-09-30T03:01:11.223Z,99.90
2023-09-30T03:03:42.631Z,99.90
2023-09-30T03:06:11.663Z,99.90
2023-09-30T03:08:39.455Z,99.90
2023-09-30T03:11:07.144Z,99.90
2023-09-30T03:13:35.289Z,99.90
2023-09-30T03:16:02.968Z,99.90
2023-09-30T03:18:32.257Z,99.90
2023-09-30T03:21:02.263Z,99.90
2023-09-30T03:23:33.228Z,99.90
2023-09-30T03:26:01.496Z,99.90
2023-09-30T03:28:30.097Z,99.90
2023-09-30T03:30:58.048Z,99.90
2023-09-30T03:33:26.872Z,99.90
2023-09-30T03:35:54.651Z,99.90
2023-09-30T03:38:23.851Z,99.90
2023-09-30T03:40:51.715Z,99.90
2023-09-30T03:43:20.048Z,99.90
2023-09-30T03:45:47.914Z,99.90
2023-09-30T03:48:15.754Z,99.90
2023-09-30T03:50:44.145Z,99.90
2023-09-30T03:53:12.563Z,99.90
2023-09-30T03:55:40.568Z,99.90
2023-09-30T03:58:08.261Z,99.90
2023-09-30T04:00:37.423Z,99.90
2023-09-30T04:03:05.360Z,99.90
2023-09-30T04:05:37.775Z,99.90
2023-09-30T04:08:06.368Z,99.90
2023-09-30T04:10:34.133Z,99.90
2023-09-30T04:13:01.817Z,99.90
2023-09-30T04:15:30.153Z,99.90
2023-09-30T04:18:00.655Z,99.90
2023-09-30T04:20:28.506Z,99.90
2023-09-30T04:22:58.799Z,99.90
2023-09-30T04:25:27.444Z,99.90
2023-09-30T04:27:55.486Z,99.90
2023-09-30T04:30:24.278Z,99.90
2023-09-30T04:32:52.128Z,99.90
2023-09-30T04:35:20.683Z,99.90
2023-09-30T04:37:48.334Z,99.90
2023-09-30T04:40:21.457Z,99.90
2023-09-30T04:42:50.737Z,99.90
2023-09-30T04:45:21.665Z,99.90
2023-09-30T04:47:50.537Z,99.90
2023-09-30T04:50:18.534Z,99.90
2023-09-30T04:52:46.771Z,99.90
2023-09-30T04:55:17.457Z,99.90
2023-09-30T04:57:47.343Z,99.90
2023-09-30T05:00:16.613Z,99.90
2023-09-30T05:02:47.680Z,99.90
2023-09-30T05:05:16.247Z,99.90
2023-09-30T05:07:44.566Z,99.90
2023-09-30T05:10:15.047Z,99.90
2023-09-30T05:12:47.499Z,99.90
2023-09-30T05:15:18.080Z,99.90
2023-09-30T05:17:50.208Z,99.90
2023-09-30T05:20:19.061Z,99.90
2023-09-30T05:22:47.942Z,99.90
2023-09-30T05:25:19.761Z,99.90
2023-09-30T05:27:50.777Z,99.90
2023-09-30T05:30:20.644Z,99.90
2023-09-30T05:32:49.085Z,99.90
2023-09-30T05:35:18.668Z,99.90
2023-09-30T05:37:47.172Z,99.90
2023-09-30T05:40:23.688Z,99.90
2023-09-30T05:42:56.614Z,99.90
2023-09-30T05:45:25.201Z,99.90
2023-09-30T05:47:53.921Z,99.90
2023-09-30T05:50:28.542Z,99.90
2023-09-30T05:52:57.053Z,99.90
2023-09-30T05:55:27.078Z,99.90
2023-09-30T05:57:56.023Z,99.90
2023-09-30T06:00:32.728Z,99.90
2023-09-30T06:03:01.245Z,99.90
2023-09-30T06:05:32.393Z,99.90
2023-09-30T06:08:04.245Z,99.90
2023-09-30T06:10:32.857Z,99.90
2023-09-30T06:13:01.227Z,99.90
2023-09-30T06:15:30.026Z,99.90
2023-09-30T06:17:59.127Z,99.90
2023-09-30T06:20:28.576Z,99.90
2023-09-30T06:22:57.364Z,99.90
2023-09-30T06:25:25.830Z,99.90
2023-09-30T06:27:54.474Z,99.90
2023-09-30T06:30:22.768Z,99.90
2023-09-30T06:32:50.989Z,99.90
2023-09-30T06:35:20.469Z,99.90
2023-09-30T06:37:51.248Z,99.90
2023-09-30T06:40:20.001Z,99.90
2023-09-30T06:42:47.973Z,99.90
2023-09-30T06:45:16.713Z,99.90
2023-09-30T06:47:46.945Z,99.90
2023-09-30T06:50:18.303Z,99.90
2023-09-30T06:52:51.364Z,99.90
2023-09-30T06:55:19.459Z,99.90
2023-09-30T06:57:47.739Z,99.90
2023-09-30T07:00:16.177Z,99.90
2023-09-30T07:02:44.125Z,99.90
2023-09-30T07:05:13.816Z,99.90
2023-09-30T07:07:46.642Z,99.90
2023-09-30T07:10:15.567Z,99.90
2023-09-30T07:12:43.561Z,99.90
2023-09-30T07:15:11.726Z,99.90
2023-09-30T07:17:40.110Z,99.90
2023-09-30T07:20:10.934Z,99.90
2023-09-30T07:22:48.286Z,99.90
2023-09-30T07:25:20.731Z,99.90
2023-09-30T07:27:49.117Z,99.90
2023-09-30T07:30:17.462Z,99.90
2023-09-30T07:32:46.067Z,99.90
2023-09-30T07:35:16.650Z,99.90
2023-09-30T07:37:45.200Z,99.90
2023-09-30T07:40:14.227Z,99.90
2023-09-30T07:42:42.252Z,99.90
2023-09-30T07:45:10.510Z,99.90
2023-09-30T07:47:38.922Z,99.90
2023-09-30T07:50:11.340Z,99.90
2023-09-30T07:52:41.130Z,99.90
2023-09-30T07:55:10.504Z,99.90
2023-09-30T07:57:39.724Z,99.90
2023-09-30T08:00:16.132Z,99.90
2023-09-30T08:02:45.757Z,99.90
2023-09-30T08:05:14.036Z,99.90
2023-09-30T08:07:41.957Z,99.90
2023-09-30T08:10:14.745Z,99.90
2023-09-30T08:12:43.318Z,99.90
2023-09-30T08:15:15.432Z,99.90
2023-09-30T08:17:44.367Z,99.90
2023-09-30T08:20:12.627Z,99.90
2023-09-30T08:22:42.223Z,99.90
2023-09-30T08:25:11.561Z,99.90
2023-09-30T08:27:40.372Z,99.90
2023-09-30T08:30:08.729Z,99.90
2023-09-30T08:32:39.936Z,99.90
2023-09-30T08:35:08.413Z,99.90
2023-09-30T08:37:36.161Z,99.90
2023-09-30T08:40:06.075Z,99.90
2023-09-30T08:42:35.544Z,99.90
2023-09-30T08:45:08.040Z,99.90
2023-09-30T08:47:36.836Z,99.90
2023-09-30T08:50:09.887Z,99.90
2023-09-30T08:52:41.179Z,99.90
2023-09-30T08:55:11.463Z,99.90
2023-09-30T08:57:41.442Z,99.90
2023-09-30T09:00:14.387Z,99.90
2023-09-30T09:02:43.257Z,99.90
2023-09-30T09:05:12.148Z,99.90
2023-09-30T09:07:40.760Z,99.90
2023-09-30T09:10:11.508Z,99.90
2023-09-30T09:12:40.451Z,99.90
2023-09-30T09:15:09.941Z,99.90
2023-09-30T09:17:45.558Z,99.90
2023-09-30T09:20:21.818Z,99.90
2023-09-30T09:22:53.931Z,99.90
2023-09-30T09:25:25.335Z,99.90
2023-09-30T09:27:55.097Z,99.90
2023-09-30T09:30:27.850Z,99.90
2023-09-30T09:32:55.588Z,99.90
2023-09-30T09:35:23.824Z,99.90
2023-09-30T09:38:07.560Z,99.90
2023-09-30T09:40:37.567Z,99.90
2023-09-30T09:43:06.801Z,99.90
2023-09-30T09:45:38.984Z,99.90
2023-09-30T09:48:08.382Z,99.90
2023-09-30T09:50:40.044Z,99.90
2023-09-30T09:53:09.612Z,99.90
2023-09-30T09:55:40.136Z,99.90
2023-09-30T09:58:09.327Z,99.90
2023-09-30T10:00:38.302Z,99.90
2023-09-30T10:03:06.364Z,99.90
2023-09-30T10:05:34.261Z,99.90
2023-09-30T10:08:06.755Z,99.90
2023-09-30T10:10:41.223Z,98.60
2023-09-30T10:13:08.953Z,99.90
2023-09-30T10:15:41.707Z,99.50
2023-09-30T10:18:15.277Z,99.00
2023-09-30T10:20:46.684Z,98.40
2023-09-30T10:23:36.000Z,98.50
2023-09-30T10:26:16.383Z,98.00
2023-09-30T10:28:48.326Z,98.20
2023-09-30T10:31:26.235Z,97.30
2023-09-30T10:34:03.538Z,97.20
2023-09-30T10:36:35.801Z,98.00
2023-09-30T10:39:04.550Z,97.10
2023-09-30T10:41:41.977Z,97.50
2023-09-30T10:44:28.587Z,98.20
2023-09-30T10:46:58.537Z,98.80
2023-09-30T10:49:26.227Z,97.80
2023-09-30T10:51:58.701Z,97.20
2023-09-30T10:54:34.063Z,97.40
2023-09-30T10:57:02.317Z,95.70
2023-09-30T10:59:36.381Z,95.90
2023-09-30T11:02:05.446Z,95.80
2023-09-30T11:04:48.221Z,94.50
2023-09-30T11:07:25.088Z,95.40
2023-09-30T11:09:54.943Z,96.30
2023-09-30T11:12:22.799Z,96.20
2023-09-30T11:15:05.106Z,94.70
2023-09-30T11:17:33.000Z,93.80
2023-09-30T11:20:01.593Z,93.90
2023-09-30T11:22:29.557Z,93.60
2023-09-30T11:24:57.902Z,92.60
2023-09-30T11:27:26.160Z,93.00
2023-09-30T11:29:54.298Z,92.90
2023-09-30T11:32:30.347Z,92.80
2023-09-30T11:34:58.617Z,92.90
2023-09-30T11:37:33.370Z,93.90
2023-09-30T11:40:17.588Z,94.30
2023-09-30T11:43:08.369Z,95.40
2023-09-30T11:45:37.546Z,95.60
2023-09-30T11:48:23.904Z,96.10
2023-09-30T11:50:51.980Z,96.00
2023-09-30T11:53:22.221Z,97.20
2023-09-30T11:55:50.187Z,97.00
2023-09-30T11:58:19.930Z,97.20
2023-09-30T12:00:53.148Z,98.20
2023-09-30T12:03:22.849Z,97.90
2023-09-30T12:05:50.630Z,98.00
2023-09-30T12:08:18.816Z,97.60
2023-09-30T12:10:46.480Z,97.90
2023-09-30T12:13:16.494Z,97.90
2023-09-30T12:15:47.197Z,97.10
2023-09-30T12:18:24.940Z,97.80
2023-09-30T12:20:53.422Z,98.20
2023-09-30T12:23:21.445Z,99.00
2023-09-30T12:26:02.428Z,98.60
2023-09-30T12:28:37.109Z,98.20
2023-09-30T12:31:06.020Z,98.00
2023-09-30T12:33:34.022Z,97.80
2023-09-30T12:36:01.946Z,97.50
2023-09-30T12:38:29.752Z,97.40
2023-09-30T12:40:57.436Z,97.50
2023-09-30T12:43:26.347Z,97.30
2023-09-30T12:45:58.869Z,96.80
2023-09-30T12:48:26.964Z,96.10
2023-09-30T12:50:54.774Z,96.60
2023-09-30T12:53:22.503Z,96.60
2023-09-30T12:55:50.220Z,96.80
2023-09-30T12:58:17.996Z,96.90
2023-09-30T13:00:45.766Z,96.70
2023-09-30T13:03:16.657Z,96.50
2023-09-30T13:05:44.567Z,96.60
2023-09-30T13:08:12.456Z,96.90
2023-09-30T13:10:40.256Z,96.40
2023-09-30T13:13:08.058Z,96.20
2023-09-30T13:15:36.029Z,96.00
2023-09-30T13:18:04.924Z,96.20
2023-09-30T13:20:32.815Z,95.30
2023-09-30T13:23:06.350Z,96.20
2023-09-30T13:25:34.049Z,96.70
2023-09-30T13:28:02.165Z,96.60
2023-09-30T13:30:30.027Z,96.00
2023-09-30T13:33:01.196Z,95.60
2023-09-30T13:35:32.177Z,96.10
2023-09-30T13:38:02.877Z,96.90
2023-09-30T13:40:31.982Z,96.20
2023-09-30T13:43:01.253Z,96.00
2023-09-30T13:45:31.944Z,95.40
2023-09-30T13:48:02.353Z,95.80
2023-09-30T13:50:30.569Z,96.50
2023-09-30T13:53:00.406Z,97.30
2023-09-30T13:55:28.489Z,97.00
2023-09-30T13:58:06.171Z,96.50
2023-09-30T14:00:34.139Z,96.00
2023-09-30T14:03:02.283Z,96.50
2023-09-30T14:05:30.330Z,96.50
2023-09-30T14:07:59.095Z,96.20
2023-09-30T14:10:27.480Z,96.10
2023-09-30T14:12:55.746Z,96.10
2023-09-30T14:15:23.609Z,97.40
2023-09-30T14:17:51.448Z,97.10
2023-09-30T14:20:24.443Z,98.40
2023-09-30T14:22:58.468Z,99.00
2023-09-30T14:25:26.538Z,99.30
2023-09-30T14:27:54.297Z,99.40
2023-09-30T14:30:22.243Z,99.90
2023-09-30T14:32:49.963Z,99.90
2023-09-30T14:35:17.872Z,99.90
2023-09-30T14:37:45.703Z,99.90
2023-09-30T14:40:14.257Z,99.90
2023-09-30T14:42:43.077Z,99.90
2023-09-30T14:45:12.289Z,99.90
2023-09-30T14:47:40.433Z,99.90
2023-09-30T14:50:09.825Z,99.90
2023-09-30T14:52:37.496Z,99.90
2023-09-30T14:55:05.641Z,99.90
2023-09-30T14:57:33.637Z,99.90
2023-09-30T15:00:01.574Z,99.90
2023-09-30T15:02:30.015Z,99.90
2023-09-30T15:04:57.784Z,99.90
2023-09-30T15:07:25.478Z,99.90
2023-09-30T15:09:55.695Z,99.90
2023-09-30T15:12:23.649Z,99.90
2023-09-30T15:14:52.946Z,99.90
2023-09-30T15:17:23.584Z,99.90
2023-09-30T15:19:55.450Z,99.90
2023-09-30T15:22:24.156Z,99.90
2023-09-30T15:24:52.321Z,99.90
2023-09-30T15:27:20.226Z,99.90
2023-09-30T15:29:51.570Z,99.90
2023-09-30T15:32:19.387Z,99.90
2023-09-30T15:34:50.115Z,99.90
2023-09-30T15:37:21.480Z,99.90
2023-09-30T15:39:49.317Z,99.90
2023-09-30T15:42:17.726Z,99.90
2023-09-30T15:44:45.362Z,99.90
2023-09-30T15:47:17.598Z,99.90
2023-09-30T15:49:48.395Z,99.90
2023-09-30T15:52:16.164Z,99.90
2023-09-30T15:54:43.845Z,99.90
2023-09-30T15:57:11.538Z,99.90
2023-09-30T15:59:40.586Z,99.90
2023-09-30T16:02:09.560Z,99.90
2023-09-30T16:04:37.851Z,99.90
2023-09-30T16:07:05.717Z,99.90
2023-09-30T16:09:34.166Z,99.90
2023-09-30T16:12:05.925Z,99.90
2023-09-30T16:14:33.787Z,99.90
2023-09-30T16:17:02.133Z,99.90
2023-09-30T16:19:29.996Z,99.90
2023-09-30T16:21:57.796Z,99.90
2023-09-30T16:24:25.974Z,99.90
2023-09-30T16:26:53.961Z,99.90
2023-09-30T16:29:24.919Z,99.90
2023-09-30T16:31:53.422Z,99.90
2023-09-30T16:34:21.930Z,99.90
2023-09-30T16:36:49.886Z,99.90
2023-09-30T16:39:18.057Z,99.90
2023-09-30T16:41:45.695Z,99.90
2023-09-30T16:44:14.804Z,99.90
2023-09-30T16:46:42.463Z,99.90
2023-09-30T16:49:10.431Z,99.90
2023-09-30T16:51:41.292Z,99.90
2023-09-30T16:54:09.575Z,99.90
2023-09-30T16:56:38.659Z,99.90
2023-09-30T16:59:06.797Z,99.90
2023-09-30T17:01:34.743Z,99.90
2023-09-30T17:04:02.645Z,99.90
2023-09-30T17:06:30.797Z,99.90
2023-09-30T17:08:58.465Z,99.90
2023-09-30T17:11:27.978Z,99.90
2023-09-30T17:13:55.760Z,99.90
2023-09-30T17:16:24.438Z,99.90
2023-09-30T17:18:52.239Z,99.90
2023-09-30T17:21:19.908Z,99.90
2023-09-30T17:23:48.015Z,99.90
2023-09-30T17:26:15.901Z,99.90
2023-09-30T17:28:43.600Z,99.90
2023-09-30T17:31:14.366Z,99.90
2023-09-30T17:33:43.012Z,99.90
2023-09-30T17:36:14.070Z,99.90
2023-09-30T17:38:41.734Z,99.90
2023-09-30T17:41:16.187Z,99.90
2023-09-30T17:43:44.287Z,99.90
2023-09-30T17:46:13.255Z,99.90
2023-09-30T17:48:41.660Z,99.90
2023-09-30T17:51:20.748Z,99.90
2023-09-30T17:53:52.692Z,99.90
2023-09-30T17:56:21.842Z,99.90
2023-09-30T17:58:49.522Z,99.90
2023-09-30T18:01:21.061Z,99.90
2023-09-30T18:03:50.589Z,99.90
2023-09-30T18:06:18.721Z,99.90
2023-09-30T18:08:49.849Z,99.90
2023-09-30T18:11:18.629Z,99.90
2023-09-30T18:13:48.061Z,99.90
2023-09-30T18:16:15.886Z,99.90
2023-09-30T18:18:43.912Z,99.90
2023-09-30T18:21:15.690Z,99.90
2023-09-30T18:23:43.900Z,99.90
2023-09-30T18:26:12.408Z,99.90
2023-09-30T18:28:40.274Z,99.90
2023-09-30T18:31:07.942Z,99.90
2023-09-30T18:33:35.777Z,99.90
2023-09-30T18:36:03.948Z,99.90
2023-09-30T18:38:32.311Z,99.90
2023-09-30T18:40:59.921Z,99.90
2023-09-30T18:43:31.611Z,99.90
2023-09-30T18:45:59.470Z,99.90
2023-09-30T18:48:27.191Z,99.90
2023-09-30T18:50:54.973Z,99.90
2023-09-30T18:53:22.635Z,99.90
2023-09-30T18:55:50.495Z,99.90
2023-09-30T18:58:18.812Z,99.90
2023-09-30T19:00:48.703Z,99.90
2023-09-30T19:03:17.684Z,99.90
2023-09-30T19:05:49.269Z,99.90
2023-09-30T19:08:17.333Z,99.90
2023-09-30T19:10:45.123Z,99.90
2023-09-30T19:13:12.885Z,99.90
2023-09-30T19:15:41.266Z,99.90
2023-09-30T19:18:11.333Z,99.90
2023-09-30T19:20:39.871Z,99.90
2023-09-30T19:23:10.132Z,99.90
2023-09-30T19:25:38.243Z,99.90
2023-09-30T19:28:06.139Z,99.90
2023-09-30T19:30:33.869Z,99.90
2023-09-30T19:33:01.722Z,99.90
2023-09-30T19:35:29.737Z,99.90
2023-09-30T19:37:58.846Z,99.90
2023-09-30T19:40:26.670Z,99.90
2023-09-30T19:42:54.765Z,99.90
2023-09-30T19:45:24.558Z,99.90
2023-09-30T19:48:01.624Z,99.90
2023-09-30T19:50:30.176Z,99.90
2023-09-30T19:52:58.455Z,99.90
2023-09-30T19:55:29.065Z,99.90
2023-09-30T19:57:57.208Z,99.90
2023-09-30T20:00:26.224Z,99.90
2023-09-30T20:02:54.430Z,99.90
2023-09-30T20:05:23.426Z,99.90
2023-09-30T20:07:51.497Z,99.90
2023-09-30T20:10:19.379Z,99.90
2023-09-30T20:12:47.274Z,99.90
2023-09-30T20:15:15.210Z,99.90
2023-09-30T20:17:43.615Z,99.90
2023-09-30T20:20:17.455Z,99.90
2023-09-30T20:22:45.716Z,99.90
2023-09-30T20:25:14.074Z,99.90
2023-09-30T20:27:43.352Z,99.90
2023-09-30T20:30:11.741Z,99.90
2023-09-30T20:32:40.229Z,99.90
2023-09-30T20:35:10.145Z,99.90
2023-09-30T20:37:38.813Z,99.90
2023-09-30T20:40:08.722Z,99.90
2023-09-30T20:42:36.555Z,99.90
2023-09-30T20:45:05.013Z,99.90
2023-09-30T20:47:33.683Z,99.90
2023-09-30T20:50:02.059Z,99.90
2023-09-30T20:52:29.884Z,99.90
2023-09-30T20:54:57.806Z,99.90
2023-09-30T20:57:25.799Z,99.90
2023-09-30T20:59:53.773Z,99.90
2023-09-30T21:02:24.806Z,99.90
2023-09-30T21:04:52.719Z,99.90
2023-09-30T21:07:20.539Z,99.90
2023-09-30T21:09:50.568Z,99.90
2023-09-30T21:12:18.346Z,99.90
2023-09-30T21:14:46.617Z,99.90
2023-09-30T21:17:16.302Z,99.90
2023-09-30T21:19:44.169Z,99.90
2023-09-30T21:22:11.990Z,99.90
2023-09-30T21:24:40.317Z,99.90
2023-09-30T21:27:08.112Z,99.90
2023-09-30T21:29:36.044Z,99.90
2023-09-30T21:32:04.093Z,99.90
2023-09-30T21:34:32.058Z,99.90
2023-09-30T21:37:00.636Z,99.90
2023-09-30T21:39:28.571Z,99.90
2023-09-30T21:41:56.451Z,99.90
2023-09-30T21:44:24.341Z,99.90
2023-09-30T21:46:53.244Z,99.90
2023-09-30T21:49:21.143Z,99.90
2023-09-30T21:51:50.256Z,99.90
2023-09-30T21:54:18.255Z,99.90
2023-09-30T21:56:47.240Z,99.90
2023-09-30T21:59:15.113Z,99.90
2023-09-30T22:01:44.293Z,99.90
2023-09-30T22:04:12.404Z,99.90
2023-09-30T22:06:40.239Z,99.90
2023-09-30T22:09:10.357Z,99.90
2023-09-30T22:11:38.173Z,99.90
2023-09-30T22:14:06.359Z,99.90
2023-09-30T22:16:34.355Z,99.90
2023-09-30T22:19:03.578Z,99.90
2023-09-30T22:21:32.301Z,99.90
2023-09-30T22:24:00.175Z,99.90
2023-09-30T22:26:28.823Z,99.90
2023-09-30T22:28:56.854Z,99.90
2023-09-30T22:31:25.160Z,99.90
2023-09-30T22:33:53.191Z,99.90
2023-09-30T22:36:27.379Z,99.90
2023-09-30T22:39:01.448Z,99.90
2023-09-30T22:41:29.370Z,99.90
2023-09-30T22:43:57.297Z,99.90
2023-09-30T22:46:25.248Z,99.90
2023-09-30T22:48:57.208Z,99.90
2023-09-30T22:51:25.185Z,99.90
2023-09-30T22:53:53.537Z,99.90
2023-09-30T22:56:24.318Z,99.90
2023-09-30T22:58:53.106Z,99.90
2023-09-30T23:01:24.665Z,99.90
2023-09-30T23:03:54.003Z,99.90
2023-09-30T23:06:22.536Z,99.90
2023-09-30T23:08:51.479Z,99.90
2023-09-30T23:11:19.338Z,99.90
2023-09-30T23:13:47.475Z,99.90
2023-09-30T23:16:16.794Z,99.90
2023-09-30T23:18:44.800Z,99.90
2023-09-30T23:21:13.445Z,99.90
2023-09-30T23:23:42.132Z,99.90
2023-09-30T23:26:11.078Z,99.90
2023-09-30T23:28:39.380Z,99.90
2023-09-30T23:31:09.315Z,99.90
2023-09-30T23:33:39.733Z,99.90
2023-09-30T23:36:12.191Z,99.90
2023-09-30T23:38:41.277Z,99.90
2023-09-30T23:41:12.381Z,99.90
2023-09-30T23:43:40.842Z,99.90
2023-09-30T23:46:13.280Z,99.90
2023-09-30T23:48:41.976Z,99.90
2023-09-30T23:51:11.617Z,99.90
2023-09-30T23:53:39.484Z,99.90
2023-09-30T23:56:07.556Z,99.90
2023-09-30T23:58:35.920Z,99.90
